createdAt,value
2016-07-20T00:00:21.140Z,1012.51
2016-07-20T00:01:21.125Z,1012.52
2016-07-20T00:02:21.111Z,1012.48
2016-07-20T00:03:21.095Z,1012.47
2016-07-20T00:04:21.086Z,1012.48
2016-07-20T00:05:21.068Z,1012.47
2016-07-20T00:06:21.057Z,1012.42
2016-07-20T00:07:21.038Z,1012.44
2016-07-20T00:08:21.025Z,1012.44
2016-07-20T00:09:21.009Z,1012.42
2016-07-20T00:10:20.997Z,1012.4
2016-07-20T00:11:20.981Z,1012.44
2016-07-20T00:12:20.972Z,1012.43
2016-07-20T00:13:20.954Z,1012.36
2016-07-20T00:14:20.937Z,1012.37
2016-07-20T00:15:20.925Z,1012.39
2016-07-20T00:16:20.911Z,1012.39
2016-07-20T00:17:20.894Z,1012.34
2016-07-20T00:18:20.881Z,1012.35
2016-07-20T00:19:20.868Z,1012.35
2016-07-20T00:20:20.853Z,1012.34
2016-07-20T00:21:20.887Z,1012.33
2016-07-20T00:22:20.825Z,1012.35
2016-07-20T00:23:20.810Z,1012.34
2016-07-20T00:24:20.805Z,1012.35
2016-07-20T00:25:20.781Z,1012.31
2016-07-20T00:26:20.769Z,1012.33
2016-07-20T00:27:20.754Z,1012.37
2016-07-20T00:28:20.736Z,1012.36
2016-07-20T00:29:20.723Z,1012.35
2016-07-20T00:30:20.711Z,1012.39
2016-07-20T00:31:20.696Z,1012.37
2016-07-20T00:32:20.681Z,1012.38
2016-07-20T00:33:20.667Z,1012.38
2016-07-20T00:34:20.655Z,1012.44
2016-07-20T00:35:20.644Z,1012.4
2016-07-20T00:36:20.624Z,1012.44
2016-07-20T00:37:20.612Z,1012.42
2016-07-20T00:38:20.595Z,1012.44
2016-07-20T00:39:20.581Z,1012.43
2016-07-20T00:40:20.568Z,1012.41
2016-07-20T00:41:20.555Z,1012.43
2016-07-20T00:42:20.537Z,1012.47
2016-07-20T00:43:20.524Z,1012.37
2016-07-20T00:44:20.511Z,1012.39
2016-07-20T00:45:20.494Z,1012.41
2016-07-20T00:46:20.482Z,1012.39
2016-07-20T00:47:20.468Z,1012.39
2016-07-20T00:48:20.452Z,1012.38
2016-07-20T00:49:20.439Z,1012.38
2016-07-20T00:50:20.423Z,1012.4
2016-07-20T00:51:20.408Z,1012.32
2016-07-20T00:52:20.400Z,1012.33
2016-07-20T00:53:20.379Z,1012.34
2016-07-20T00:54:20.367Z,1012.32
2016-07-20T00:55:20.351Z,1012.32
2016-07-20T00:56:20.337Z,1012.26
2016-07-20T00:57:20.323Z,1012.27
2016-07-20T00:58:20.315Z,1012.24
2016-07-20T00:59:20.295Z,1012.21
2016-07-20T01:00:20.287Z,1012.24
2016-07-20T01:01:20.267Z,1012.24
2016-07-20T01:02:20.263Z,1012.24
2016-07-20T01:03:20.239Z,1012.21
2016-07-20T01:04:20.225Z,1012.24
2016-07-20T01:05:20.209Z,1012.2
2016-07-20T01:06:20.195Z,1012.2
2016-07-20T01:07:20.180Z,1012.2
2016-07-20T01:08:20.170Z,1012.13
2016-07-20T01:09:20.153Z,1012.18
2016-07-20T01:10:20.137Z,1012.12
2016-07-20T01:11:20.126Z,1012.11
2016-07-20T01:12:20.111Z,1012.08
2016-07-20T01:13:20.096Z,1012.06
2016-07-20T01:14:20.080Z,1012.08
2016-07-20T01:15:20.066Z,1012.12
2016-07-20T01:16:20.053Z,1012.11
2016-07-20T01:17:20.037Z,1012.12
2016-07-20T01:18:20.024Z,1012.18
2016-07-20T01:19:20.009Z,1012.07
2016-07-20T01:20:19.993Z,1012.07
2016-07-20T01:21:19.983Z,1012.11
2016-07-20T01:22:19.967Z,1012.1
2016-07-20T01:23:19.952Z,1012.1
2016-07-20T01:24:19.934Z,1012.08
2016-07-20T01:25:19.928Z,1012.03
2016-07-20T01:26:19.910Z,1012.02
2016-07-20T01:27:19.897Z,1012.06
2016-07-20T01:28:19.879Z,1012.03
2016-07-20T01:29:19.864Z,1012.01
2016-07-20T01:30:19.850Z,1012
2016-07-20T01:31:19.843Z,1011.99
2016-07-20T01:32:19.823Z,1011.97
2016-07-20T01:33:19.807Z,1011.96
2016-07-20T01:34:19.793Z,1012
2016-07-20T01:35:19.785Z,1011.93
2016-07-20T01:36:19.764Z,1011.9
2016-07-20T01:37:19.752Z,1011.89
2016-07-20T01:38:19.737Z,1011.86
2016-07-20T01:39:19.720Z,1011.87
2016-07-20T01:40:19.710Z,1011.85
2016-07-20T01:41:19.692Z,1011.85
2016-07-20T01:42:19.679Z,1011.85
2016-07-20T01:43:19.666Z,1011.85
2016-07-20T01:44:19.652Z,1011.83
2016-07-20T01:45:19.637Z,1011.78
2016-07-20T01:46:19.624Z,1011.8
2016-07-20T01:47:19.608Z,1011.8
2016-07-20T01:48:19.594Z,1011.82
2016-07-20T01:49:19.579Z,1011.77
2016-07-20T01:50:19.566Z,1011.79
2016-07-20T01:51:19.552Z,1011.77
2016-07-20T01:52:19.535Z,1011.75
2016-07-20T01:53:19.519Z,1011.79
2016-07-20T01:54:19.508Z,1011.77
2016-07-20T01:55:19.494Z,1011.75
2016-07-20T01:56:19.479Z,1011.75
2016-07-20T01:57:19.463Z,1011.69
2016-07-20T01:58:19.456Z,1011.72
2016-07-20T01:59:19.436Z,1011.71
2016-07-20T02:00:19.424Z,1011.67
2016-07-20T02:01:19.408Z,1011.69
2016-07-20T02:02:19.394Z,1011.68
2016-07-20T02:03:19.377Z,1011.66
2016-07-20T02:04:19.366Z,1011.65
2016-07-20T02:05:19.351Z,1011.57
2016-07-20T02:06:19.336Z,1011.6
2016-07-20T02:07:19.323Z,1011.63
2016-07-20T02:08:19.307Z,1011.57
2016-07-20T02:09:19.296Z,1011.6
2016-07-20T02:10:19.279Z,1011.59
2016-07-20T02:11:19.270Z,1011.6
2016-07-20T02:12:19.255Z,1011.56
2016-07-20T02:13:19.239Z,1011.54
2016-07-20T02:14:19.222Z,1011.56
2016-07-20T02:15:19.209Z,1011.55
2016-07-20T02:16:19.192Z,1011.56
2016-07-20T02:17:19.180Z,1011.55
2016-07-20T02:18:19.165Z,1011.56
2016-07-20T02:19:19.153Z,1011.55
2016-07-20T02:20:19.137Z,1011.55
2016-07-20T02:21:19.122Z,1011.56
2016-07-20T02:22:19.107Z,1011.58
2016-07-20T02:23:19.093Z,1011.54
2016-07-20T02:24:19.079Z,1011.54
2016-07-20T02:25:19.066Z,1011.56
2016-07-20T02:26:19.049Z,1011.53
2016-07-20T02:27:19.035Z,1011.45
2016-07-20T02:28:19.022Z,1011.45
2016-07-20T02:29:19.009Z,1011.42
2016-07-20T02:30:18.991Z,1011.42
2016-07-20T02:31:18.978Z,1011.39
2016-07-20T02:32:18.963Z,1011.42
2016-07-20T02:33:18.950Z,1011.41
2016-07-20T02:34:18.936Z,1011.4
2016-07-20T02:35:18.923Z,1011.41
2016-07-20T02:36:18.914Z,1011.38
2016-07-20T02:37:18.893Z,1011.37
2016-07-20T02:38:18.881Z,1011.4
2016-07-20T02:39:18.864Z,1011.43
2016-07-20T02:40:18.852Z,1011.43
2016-07-20T02:41:18.836Z,1011.44
2016-07-20T02:42:18.822Z,1011.44
2016-07-20T02:43:18.807Z,1011.38
2016-07-20T02:44:18.801Z,1011.43
2016-07-20T02:45:18.779Z,1011.4
2016-07-20T02:46:18.766Z,1011.42
2016-07-20T02:47:18.749Z,1011.4
2016-07-20T02:48:18.737Z,1011.4
2016-07-20T02:49:18.722Z,1011.42
2016-07-20T02:50:18.707Z,1011.42
2016-07-20T02:51:18.690Z,1011.41
2016-07-20T02:52:18.677Z,1011.39
2016-07-20T02:53:18.668Z,1011.34
2016-07-20T02:54:18.648Z,1011.39
2016-07-20T02:55:18.635Z,1011.38
2016-07-20T02:56:18.621Z,1011.37
2016-07-20T02:57:18.609Z,1011.39
2016-07-20T02:58:18.593Z,1011.33
2016-07-20T02:59:18.577Z,1011.37
2016-07-20T03:00:18.565Z,1011.33
2016-07-20T03:01:18.554Z,1011.3
2016-07-20T03:02:18.537Z,1011.33
2016-07-20T03:03:18.519Z,1011.35
2016-07-20T03:04:18.507Z,1011.36
2016-07-20T03:05:18.495Z,1011.33
2016-07-20T03:06:18.475Z,1011.3
2016-07-20T03:07:18.475Z,1011.28
2016-07-20T03:08:18.447Z,1011.28
2016-07-20T03:09:18.434Z,1011.28
2016-07-20T03:10:18.418Z,1011.26
2016-07-20T03:11:18.405Z,1011.27
2016-07-20T03:12:18.391Z,1011.26
2016-07-20T03:13:18.376Z,1011.24
2016-07-20T03:14:18.362Z,1011.24
2016-07-20T03:15:18.347Z,1011.26
2016-07-20T03:16:18.333Z,1011.23
2016-07-20T03:17:18.318Z,1011.24
2016-07-20T03:18:18.307Z,1011.26
2016-07-20T03:19:18.291Z,1011.25
2016-07-20T03:20:18.280Z,1011.26
2016-07-20T03:21:18.263Z,1011.25
2016-07-20T03:22:18.254Z,1011.23
2016-07-20T03:23:18.235Z,1011.23
2016-07-20T03:24:18.217Z,1011.26
2016-07-20T03:25:18.205Z,1011.25
2016-07-20T03:26:18.193Z,1011.22
2016-07-20T03:27:18.178Z,1011.24
2016-07-20T03:28:18.162Z,1011.27
2016-07-20T03:29:18.152Z,1011.24
2016-07-20T03:30:18.136Z,1011.23
2016-07-20T03:31:18.119Z,1011.27
2016-07-20T03:32:18.103Z,1011.25
2016-07-20T03:33:18.089Z,1011.28
2016-07-20T03:34:18.077Z,1011.28
2016-07-20T03:35:18.065Z,1011.26
2016-07-20T03:36:18.049Z,1011.28
2016-07-20T03:37:18.035Z,1011.24
2016-07-20T03:38:18.018Z,1011.27
2016-07-20T03:39:18.011Z,1011.24
2016-07-20T03:40:17.991Z,1011.24
2016-07-20T03:41:17.977Z,1011.23
2016-07-20T03:42:17.964Z,1011.23
2016-07-20T03:43:17.949Z,1011.25
2016-07-20T03:44:17.936Z,1011.25
2016-07-20T03:45:17.918Z,1011.26
2016-07-20T03:46:17.907Z,1011.24
2016-07-20T03:47:17.896Z,1011.24
2016-07-20T03:48:17.879Z,1011.27
2016-07-20T03:49:17.864Z,1011.24
2016-07-20T03:50:17.849Z,1011.22
2016-07-20T03:51:17.834Z,1011.25
2016-07-20T03:52:17.821Z,1011.24
2016-07-20T03:53:17.806Z,1011.27
2016-07-20T03:54:17.789Z,1011.24
2016-07-20T03:55:17.780Z,1011.26
2016-07-20T03:56:17.763Z,1011.24
2016-07-20T03:57:17.745Z,1011.22
2016-07-20T03:58:17.734Z,1011.28
2016-07-20T03:59:17.721Z,1011.2
2016-07-20T04:00:17.706Z,1011.24
2016-07-20T04:01:17.691Z,1011.18
2016-07-20T04:02:17.678Z,1011.18
2016-07-20T04:03:17.661Z,1011.15
2016-07-20T04:04:17.653Z,1011.18
2016-07-20T04:05:17.636Z,1011.19
2016-07-20T04:06:17.619Z,1011.2
2016-07-20T04:07:17.603Z,1011.17
2016-07-20T04:08:17.589Z,1011.22
2016-07-20T04:09:17.577Z,1011.17
2016-07-20T04:10:17.566Z,1011.16
2016-07-20T04:11:17.547Z,1011.19
2016-07-20T04:12:17.537Z,1011.17
2016-07-20T04:13:17.518Z,1011.13
2016-07-20T04:14:17.506Z,1011.13
2016-07-20T04:15:17.490Z,1011.13
2016-07-20T04:16:17.475Z,1011.13
2016-07-20T04:17:17.462Z,1011.11
2016-07-20T04:18:17.449Z,1011.12
2016-07-20T04:19:17.432Z,1011.12
2016-07-20T04:20:17.421Z,1011.11
2016-07-20T04:21:17.402Z,1011.15
2016-07-20T04:22:17.390Z,1011.14
2016-07-20T04:23:17.377Z,1011.12
2016-07-20T04:24:17.360Z,1011.07
2016-07-20T04:25:17.347Z,1011.07
2016-07-20T04:26:17.331Z,1011.08
2016-07-20T04:27:17.317Z,1011.09
2016-07-20T04:28:17.306Z,1011.06
2016-07-20T04:29:17.290Z,1011.08
2016-07-20T04:30:17.272Z,1011.07
2016-07-20T04:31:17.262Z,1011.11
2016-07-20T04:32:17.246Z,1011.09
2016-07-20T04:33:17.238Z,1011.11
2016-07-20T04:34:17.218Z,1011.12
2016-07-20T04:35:17.209Z,1011.13
2016-07-20T04:36:17.189Z,1011.05
2016-07-20T04:37:17.173Z,1011.05
2016-07-20T04:38:17.161Z,1011.08
2016-07-20T04:39:17.147Z,1011.05
2016-07-20T04:40:17.129Z,1011.06
2016-07-20T04:41:17.117Z,1010.99
2016-07-20T04:42:17.104Z,1011.02
2016-07-20T04:43:17.087Z,1010.99
2016-07-20T04:44:17.072Z,1010.99
2016-07-20T04:45:17.062Z,1011.02
2016-07-20T04:46:17.045Z,1011.02
2016-07-20T04:47:17.033Z,1010.98
2016-07-20T04:48:17.017Z,1010.99
2016-07-20T04:49:17.005Z,1010.98
2016-07-20T04:50:16.987Z,1011.01
2016-07-20T04:51:16.971Z,1010.98
2016-07-20T04:52:16.964Z,1011
2016-07-20T04:53:16.945Z,1011
2016-07-20T04:54:16.931Z,1010.97
2016-07-20T04:55:16.917Z,1010.98
2016-07-20T04:56:16.907Z,1010.99
2016-07-20T04:57:16.890Z,1010.98
2016-07-20T04:58:16.874Z,1010.96
2016-07-20T04:59:16.858Z,1010.99
2016-07-20T05:00:16.849Z,1010.99
2016-07-20T05:01:16.831Z,1010.99
2016-07-20T05:02:16.818Z,1010.99
2016-07-20T05:03:16.802Z,1010.97
2016-07-20T05:04:16.791Z,1010.98
2016-07-20T05:05:16.774Z,1010.96
2016-07-20T05:06:16.761Z,1010.97
2016-07-20T05:07:16.746Z,1010.94
2016-07-20T05:08:16.730Z,1010.96
2016-07-20T05:09:16.717Z,1010.89
2016-07-20T05:10:16.704Z,1010.87
2016-07-20T05:11:16.700Z,1010.87
2016-07-20T05:12:16.676Z,1010.89
2016-07-20T05:13:16.660Z,1010.87
2016-07-20T05:14:16.651Z,1010.89
2016-07-20T05:15:16.634Z,1010.93
2016-07-20T05:16:16.619Z,1010.88
2016-07-20T05:17:16.602Z,1010.87
2016-07-20T05:18:16.588Z,1010.85
2016-07-20T05:19:16.575Z,1010.87
2016-07-20T05:20:16.558Z,1010.9
2016-07-20T05:21:16.550Z,1010.89
2016-07-20T05:22:16.529Z,1010.84
2016-07-20T05:23:16.520Z,1010.82
2016-07-20T05:24:16.501Z,1010.83
2016-07-20T05:25:16.490Z,1010.84
2016-07-20T05:26:16.475Z,1010.81
2016-07-20T05:27:16.460Z,1010.81
2016-07-20T05:28:16.450Z,1010.75
2016-07-20T05:29:16.445Z,1010.75
2016-07-20T05:30:16.417Z,1010.78
2016-07-20T05:31:16.403Z,1010.81
2016-07-20T05:32:16.388Z,1010.77
2016-07-20T05:33:16.376Z,1010.75
2016-07-20T05:34:16.359Z,1010.76
2016-07-20T05:35:16.346Z,1010.71
2016-07-20T05:36:16.333Z,1010.78
2016-07-20T05:37:16.317Z,1010.69
2016-07-20T05:38:16.306Z,1010.71
2016-07-20T05:39:16.289Z,1010.74
2016-07-20T05:40:16.281Z,1010.73
2016-07-20T05:41:16.262Z,1010.72
2016-07-20T05:42:16.248Z,1010.71
2016-07-20T05:43:16.243Z,1010.73
2016-07-20T05:44:16.220Z,1010.73
2016-07-20T05:45:16.203Z,1010.73
2016-07-20T05:46:16.190Z,1010.72
2016-07-20T05:47:16.175Z,1010.75
2016-07-20T05:48:16.162Z,1010.72
2016-07-20T05:49:16.147Z,1010.65
2016-07-20T05:50:16.135Z,1010.63
2016-07-20T05:51:16.120Z,1010.68
2016-07-20T05:52:16.105Z,1010.68
2016-07-20T05:53:16.088Z,1010.65
2016-07-20T05:54:16.075Z,1010.65
2016-07-20T05:55:16.061Z,1010.59
2016-07-20T05:56:16.046Z,1010.63
2016-07-20T05:57:16.033Z,1010.64
2016-07-20T05:58:16.018Z,1010.62
2016-07-20T05:59:16.003Z,1010.62
2016-07-20T06:00:15.992Z,1010.59
2016-07-20T06:01:15.976Z,1010.6
2016-07-20T06:02:15.966Z,1010.6
2016-07-20T06:03:15.948Z,1010.6
2016-07-20T06:04:15.942Z,1010.59
2016-07-20T06:05:15.917Z,1010.57
2016-07-20T06:06:15.900Z,1010.58
2016-07-20T06:07:15.894Z,1010.56
2016-07-20T06:08:15.875Z,1010.53
2016-07-20T06:09:15.862Z,1010.53
2016-07-20T06:10:15.847Z,1010.57
2016-07-20T06:11:15.832Z,1010.54
2016-07-20T06:12:15.819Z,1010.55
2016-07-20T06:13:15.805Z,1010.52
2016-07-20T06:14:15.802Z,1010.54
2016-07-20T06:15:15.775Z,1010.55
2016-07-20T06:16:15.761Z,1010.54
2016-07-20T06:17:15.753Z,1010.52
2016-07-20T06:18:15.733Z,1010.51
2016-07-20T06:19:15.716Z,1010.52
2016-07-20T06:20:15.709Z,1010.52
2016-07-20T06:22:15.678Z,1010.54
2016-07-20T06:23:15.661Z,1010.51
2016-07-20T06:24:15.649Z,1010.54
2016-07-20T06:25:15.633Z,1010.44
2016-07-20T06:26:15.619Z,1010.48
2016-07-20T06:27:15.604Z,1010.52
2016-07-20T06:28:15.589Z,1010.43
2016-07-20T06:29:15.578Z,1010.49
2016-07-20T06:30:15.561Z,1010.47
2016-07-20T06:31:15.548Z,1010.47
2016-07-20T06:32:15.533Z,1010.47
2016-07-20T06:33:15.520Z,1010.48
2016-07-20T06:34:15.505Z,1010.48
2016-07-20T06:35:15.489Z,1010.47
2016-07-20T06:36:15.477Z,1010.47
2016-07-20T06:37:15.462Z,1010.44
2016-07-20T06:38:15.447Z,1010.44
2016-07-20T06:39:15.437Z,1010.48
2016-07-20T06:40:15.420Z,1010.48
2016-07-20T06:41:15.405Z,1010.46
2016-07-20T06:42:15.393Z,1010.45
2016-07-20T06:43:15.375Z,1010.46
2016-07-20T06:44:15.363Z,1010.41
2016-07-20T06:45:15.350Z,1010.44
2016-07-20T06:46:15.335Z,1010.4
2016-07-20T06:47:15.320Z,1010.36
2016-07-20T06:48:15.305Z,1010.37
2016-07-20T06:49:15.294Z,1010.39
2016-07-20T06:50:15.279Z,1010.35
2016-07-20T06:51:15.261Z,1010.4
2016-07-20T06:52:15.249Z,1010.34
2016-07-20T06:53:15.237Z,1010.35
2016-07-20T06:54:15.219Z,1010.33
2016-07-20T06:55:15.207Z,1010.34
2016-07-20T06:56:15.190Z,1010.31
2016-07-20T06:57:15.178Z,1010.31
2016-07-20T06:58:15.162Z,1010.32
2016-07-20T06:59:15.148Z,1010.33
2016-07-20T07:00:15.134Z,1010.26
2016-07-20T07:01:15.116Z,1010.31
2016-07-20T07:02:15.104Z,1010.28
2016-07-20T07:03:15.090Z,1010.31
2016-07-20T07:04:15.076Z,1010.28
2016-07-20T07:05:15.062Z,1010.25
2016-07-20T07:06:15.047Z,1010.32
2016-07-20T07:07:15.032Z,1010.26
2016-07-20T07:08:15.028Z,1010.26
2016-07-20T07:09:15.005Z,1010.24
2016-07-20T07:10:14.993Z,1010.29
2016-07-20T07:11:14.977Z,1010.23
2016-07-20T07:12:14.962Z,1010.23
2016-07-20T07:13:14.949Z,1010.23
2016-07-20T07:14:14.935Z,1010.19
2016-07-20T07:15:14.921Z,1010.21
2016-07-20T07:16:14.904Z,1010.17
2016-07-20T07:17:14.889Z,1010.18
2016-07-20T07:18:14.879Z,1010.23
2016-07-20T07:19:14.864Z,1010.19
2016-07-20T07:20:14.846Z,1010.19
2016-07-20T07:21:14.832Z,1010.13
2016-07-20T07:22:14.818Z,1010.13
2016-07-20T07:23:14.806Z,1010.17
2016-07-20T07:24:14.790Z,1010.16
2016-07-20T07:25:14.777Z,1010.16
2016-07-20T07:26:14.762Z,1010.18
2016-07-20T07:27:14.753Z,1010.16
2016-07-20T07:28:14.733Z,1010.11
2016-07-20T07:29:14.719Z,1010.18
2016-07-20T07:30:14.706Z,1010.14
2016-07-20T07:31:14.689Z,1010.12
2016-07-20T07:32:14.676Z,1010.13
2016-07-20T07:33:14.665Z,1010.09
2016-07-20T07:34:14.650Z,1010.1
2016-07-20T07:35:14.634Z,1010.08
2016-07-20T07:36:14.618Z,1010.12
2016-07-20T07:37:14.604Z,1010.06
2016-07-20T07:38:14.591Z,1010.09
2016-07-20T07:39:14.578Z,1010.01
2016-07-20T07:40:14.563Z,1009.98
2016-07-20T07:41:14.549Z,1010
2016-07-20T07:42:14.532Z,1009.96
2016-07-20T07:43:14.520Z,1009.95
2016-07-20T07:44:14.505Z,1009.87
2016-07-20T07:45:14.495Z,1009.9
2016-07-20T07:46:14.476Z,1009.87
2016-07-20T07:47:14.464Z,1009.87
2016-07-20T07:48:14.448Z,1009.83
2016-07-20T07:49:14.433Z,1009.9
2016-07-20T07:50:14.418Z,1009.84
2016-07-20T07:51:14.407Z,1009.82
2016-07-20T07:52:14.392Z,1009.76
2016-07-20T07:53:14.376Z,1009.8
2016-07-20T07:54:14.361Z,1009.76
2016-07-20T07:55:14.349Z,1009.77
2016-07-20T07:56:14.339Z,1009.76
2016-07-20T07:57:14.322Z,1009.74
2016-07-20T07:58:14.321Z,1009.74
2016-07-20T07:59:14.291Z,1009.74
2016-07-20T08:00:14.281Z,1009.71
2016-07-20T08:01:14.265Z,1009.76
2016-07-20T08:02:14.250Z,1009.71
2016-07-20T08:03:14.235Z,1009.74
2016-07-20T08:04:14.222Z,1009.75
2016-07-20T08:05:14.205Z,1009.72
2016-07-20T08:06:14.190Z,1009.72
2016-07-20T08:07:14.177Z,1009.68
2016-07-20T08:08:14.164Z,1009.7
2016-07-20T08:09:14.148Z,1009.74
2016-07-20T08:10:14.143Z,1009.67
2016-07-20T08:11:14.121Z,1009.69
2016-07-20T08:12:14.104Z,1009.72
2016-07-20T08:13:14.094Z,1009.64
2016-07-20T08:14:14.079Z,1009.65
2016-07-20T08:15:14.065Z,1009.66
2016-07-20T08:16:14.049Z,1009.69
2016-07-20T08:17:14.033Z,1009.63
2016-07-20T08:18:14.022Z,1009.61
2016-07-20T08:19:14.011Z,1009.58
2016-07-20T08:20:13.993Z,1009.58
2016-07-20T08:21:13.981Z,1009.57
2016-07-20T08:22:13.965Z,1009.62
2016-07-20T08:23:13.950Z,1009.55
2016-07-20T08:24:13.936Z,1009.55
2016-07-20T08:25:13.920Z,1009.52
2016-07-20T08:26:13.907Z,1009.51
2016-07-20T08:27:13.891Z,1009.52
2016-07-20T08:28:13.878Z,1009.53
2016-07-20T08:29:13.875Z,1009.53
2016-07-20T08:30:13.849Z,1009.51
2016-07-20T08:31:13.836Z,1009.49
2016-07-20T08:32:13.820Z,1009.5
2016-07-20T08:33:13.806Z,1009.5
2016-07-20T08:34:13.794Z,1009.47
2016-07-20T08:35:13.792Z,1009.47
2016-07-20T08:36:13.764Z,1009.47
2016-07-20T08:37:13.748Z,1009.44
2016-07-20T08:38:13.737Z,1009.44
2016-07-20T08:39:13.723Z,1009.44
2016-07-20T08:40:13.709Z,1009.41
2016-07-20T08:41:13.692Z,1009.41
2016-07-20T08:42:13.681Z,1009.37
2016-07-20T08:43:13.665Z,1009.37
2016-07-20T08:44:13.653Z,1009.4
2016-07-20T08:45:13.636Z,1009.39
2016-07-20T08:46:13.620Z,1009.36
2016-07-20T08:47:13.609Z,1009.38
2016-07-20T08:48:13.595Z,1009.39
2016-07-20T08:49:13.580Z,1009.42
2016-07-20T08:50:13.567Z,1009.43
2016-07-20T08:51:13.550Z,1009.42
2016-07-20T08:52:13.536Z,1009.42
2016-07-20T08:53:13.526Z,1009.41
2016-07-20T08:54:13.507Z,1009.41
2016-07-20T08:55:13.493Z,1009.38
2016-07-20T08:56:13.480Z,1009.39
2016-07-20T08:57:13.466Z,1009.39
2016-07-20T08:58:13.449Z,1009.36
2016-07-20T08:59:13.438Z,1009.31
2016-07-20T09:00:13.423Z,1009.32
2016-07-20T09:01:13.410Z,1009.32
2016-07-20T09:02:13.395Z,1009.32
2016-07-20T09:03:13.379Z,1009.27
2016-07-20T09:04:13.366Z,1009.26
2016-07-20T09:05:13.353Z,1009.24
2016-07-20T09:06:13.338Z,1009.26
2016-07-20T09:07:13.326Z,1009.21
2016-07-20T09:08:13.310Z,1009.25
2016-07-20T09:09:13.297Z,1009.25
2016-07-20T09:10:13.281Z,1009.22
2016-07-20T09:11:13.268Z,1009.22
2016-07-20T09:12:13.253Z,1009.18
2016-07-20T09:13:13.242Z,1009.21
2016-07-20T09:14:13.229Z,1009.16
2016-07-20T09:15:13.212Z,1009.23
2016-07-20T09:16:13.194Z,1009.17
2016-07-20T09:17:13.183Z,1009.18
2016-07-20T09:18:13.167Z,1009.19
2016-07-20T09:19:13.152Z,1009.13
2016-07-20T09:20:13.140Z,1009.14
2016-07-20T09:21:13.126Z,1009.1
2016-07-20T09:22:13.114Z,1009.09
2016-07-20T09:23:13.096Z,1009.11
2016-07-20T09:24:13.082Z,1009.15
2016-07-20T09:25:13.068Z,1009.16
2016-07-20T09:26:13.054Z,1009.15
2016-07-20T09:27:13.038Z,1009.16
2016-07-20T09:28:13.025Z,1009.19
2016-07-20T09:29:13.010Z,1009.19
2016-07-20T09:30:12.995Z,1009.15
2016-07-20T09:31:12.982Z,1009.15
2016-07-20T09:32:12.965Z,1009.05
2016-07-20T09:33:12.952Z,1009.09
2016-07-20T09:34:12.940Z,1009.06
2016-07-20T09:35:12.926Z,1009.11
2016-07-20T09:36:12.910Z,1009.11
2016-07-20T09:37:12.903Z,1009.12
2016-07-20T09:38:12.883Z,1009.07
2016-07-20T09:39:12.868Z,1008.96
2016-07-20T09:40:12.853Z,1009.03
2016-07-20T09:41:12.840Z,1009.04
2016-07-20T09:42:12.827Z,1009.08
2016-07-20T09:43:12.815Z,1009
2016-07-20T09:44:12.798Z,1008.97
2016-07-20T09:45:12.783Z,1009
2016-07-20T09:46:12.791Z,1008.92
2016-07-20T09:47:12.756Z,1008.95
2016-07-20T09:48:12.741Z,1008.91
2016-07-20T09:49:12.726Z,1008.88
2016-07-20T09:50:12.711Z,1008.92
2016-07-20T09:51:12.696Z,1008.84
2016-07-20T09:52:12.682Z,1008.84
2016-07-20T09:53:12.666Z,1008.77
2016-07-20T09:54:12.656Z,1008.78
2016-07-20T09:55:12.642Z,1008.77
2016-07-20T09:56:12.625Z,1008.72
2016-07-20T09:57:12.611Z,1008.67
2016-07-20T09:58:12.598Z,1008.59
2016-07-20T09:59:12.584Z,1008.65
2016-07-20T10:00:12.573Z,1008.67
2016-07-20T10:01:12.557Z,1008.66
2016-07-20T10:02:12.540Z,1008.68
2016-07-20T10:03:12.531Z,1008.7
2016-07-20T10:04:12.512Z,1008.66
2016-07-20T10:05:12.508Z,1008.72
2016-07-20T10:06:12.486Z,1008.71
2016-07-20T10:07:12.485Z,1008.68
2016-07-20T10:08:12.457Z,1008.65
2016-07-20T10:09:12.443Z,1008.69
2016-07-20T10:10:12.429Z,1008.63
2016-07-20T10:11:12.420Z,1008.66
2016-07-20T10:12:12.400Z,1008.67
2016-07-20T10:13:12.386Z,1008.6
2016-07-20T10:14:12.373Z,1008.56
2016-07-20T10:15:12.359Z,1008.58
2016-07-20T10:16:12.347Z,1008.59
2016-07-20T10:17:12.328Z,1008.51
2016-07-20T10:18:12.314Z,1008.56
2016-07-20T10:19:12.307Z,1008.5
2016-07-20T10:20:12.283Z,1008.53
2016-07-20T10:21:12.273Z,1008.51
2016-07-20T10:22:12.259Z,1008.5
2016-07-20T10:23:12.252Z,1008.46
2016-07-20T10:24:12.230Z,1008.47
2016-07-20T10:25:12.215Z,1008.48
2016-07-20T10:26:12.200Z,1008.5
2016-07-20T10:27:12.187Z,1008.5
2016-07-20T10:28:12.171Z,1008.46
2016-07-20T10:29:12.159Z,1008.43
2016-07-20T10:30:12.164Z,1008.46
2016-07-20T10:31:12.127Z,1008.47
2016-07-20T10:32:12.116Z,1008.46
2016-07-20T10:33:12.101Z,1008.45
2016-07-20T10:34:12.087Z,1008.45
2016-07-20T10:35:12.072Z,1008.48
2016-07-20T10:36:12.058Z,1008.46
2016-07-20T10:37:12.044Z,1008.43
2016-07-20T10:38:12.028Z,1008.37
2016-07-20T10:39:12.016Z,1008.46
2016-07-20T10:40:12.002Z,1008.39
2016-07-20T10:41:11.986Z,1008.33
2016-07-20T10:42:11.970Z,1008.29
2016-07-20T10:43:11.959Z,1008.35
2016-07-20T10:44:12.154Z,1008.33
2016-07-20T10:45:11.930Z,1008.26
2016-07-20T10:46:11.913Z,1008.27
2016-07-20T10:47:11.901Z,1008.26
2016-07-20T10:48:11.892Z,1008.3
2016-07-20T10:49:11.873Z,1008.26
2016-07-20T10:50:11.862Z,1008.24
2016-07-20T10:51:11.844Z,1008.26
2016-07-20T10:52:11.832Z,1008.23
2016-07-20T10:53:11.817Z,1008.17
2016-07-20T10:54:11.802Z,1008.19
2016-07-20T10:55:11.788Z,1008.19
2016-07-20T10:56:11.775Z,1008.23
2016-07-20T10:57:11.759Z,1008.21
2016-07-20T10:58:11.745Z,1008.1
2016-07-20T10:59:11.729Z,1008.15
2016-07-20T11:00:11.715Z,1008.19
2016-07-20T11:01:11.700Z,1008.15
2016-07-20T11:02:11.689Z,1008.18
2016-07-20T11:03:11.676Z,1008.14
2016-07-20T11:04:11.659Z,1008.1
2016-07-20T11:05:11.644Z,1008.09
2016-07-20T11:06:11.630Z,1008.08
2016-07-20T11:07:11.620Z,1008.03
2016-07-20T11:08:11.604Z,1008.04
2016-07-20T11:09:11.589Z,1008.11
2016-07-20T11:10:11.575Z,1008.18
2016-07-20T11:11:11.561Z,1008.06
2016-07-20T11:12:11.548Z,1008.05
2016-07-20T11:13:11.531Z,1008.05
2016-07-20T11:14:11.519Z,1008.04
2016-07-20T11:15:11.504Z,1008.05
2016-07-20T11:16:11.488Z,1008.02
2016-07-20T11:17:11.486Z,1007.99
2016-07-20T11:18:11.460Z,1008.02
2016-07-20T11:19:11.444Z,1007.97
2016-07-20T11:20:11.432Z,1007.97
2016-07-20T11:21:11.418Z,1007.91
2016-07-20T11:22:11.403Z,1007.94
2016-07-20T11:23:11.388Z,1007.97
2016-07-20T11:24:11.377Z,1007.92
2016-07-20T11:25:11.362Z,1007.88
2016-07-20T11:26:11.348Z,1007.83
2016-07-20T11:27:11.333Z,1007.88
2016-07-20T11:28:11.321Z,1007.89
2016-07-20T11:29:11.304Z,1007.89
2016-07-20T11:30:11.293Z,1007.84
2016-07-20T11:31:11.276Z,1007.91
2016-07-20T11:32:11.266Z,1007.92
2016-07-20T11:33:11.250Z,1007.86
2016-07-20T11:34:11.232Z,1007.82
2016-07-20T11:35:11.220Z,1007.89
2016-07-20T11:36:11.205Z,1007.88
2016-07-20T11:37:11.190Z,1007.86
2016-07-20T11:38:11.174Z,1007.88
2016-07-20T11:39:11.177Z,1007.81
2016-07-20T11:40:11.149Z,1007.81
2016-07-20T11:41:11.139Z,1007.77
2016-07-20T11:42:11.120Z,1007.78
2016-07-20T11:43:11.105Z,1007.73
2016-07-20T11:44:11.091Z,1007.69
2016-07-20T11:45:11.079Z,1007.67
2016-07-20T11:46:11.066Z,1007.63
2016-07-20T11:47:11.055Z,1007.64
2016-07-20T11:48:11.036Z,1007.62
2016-07-20T11:49:11.022Z,1007.58
2016-07-20T11:50:11.007Z,1007.58
2016-07-20T11:51:10.992Z,1007.58
2016-07-20T11:52:10.978Z,1007.54
2016-07-20T11:53:10.966Z,1007.49
2016-07-20T11:54:10.956Z,1007.46
2016-07-20T11:55:10.936Z,1007.53
2016-07-20T11:56:10.922Z,1007.52
2016-07-20T11:57:10.905Z,1007.44
2016-07-20T11:58:10.896Z,1007.5
2016-07-20T11:59:10.879Z,1007.5
2016-07-20T12:00:10.866Z,1007.45
2016-07-20T12:01:10.852Z,1007.46
2016-07-20T12:02:10.836Z,1007.44
2016-07-20T12:03:10.822Z,1007.43
2016-07-20T12:04:10.809Z,1007.43
2016-07-20T12:05:10.795Z,1007.41
2016-07-20T12:06:10.779Z,1007.39
2016-07-20T12:07:10.769Z,1007.37
2016-07-20T12:08:10.752Z,1007.35